Choska, Oklahoma
Current Conditions -  °F | °C
As of 2:53 AM on Wednesday 26 Nov 2014 (Local Time) from KRVS Reporting Station
Clear Clear  
Wind Chill: 35°   Ceiling: Unl
Heat Index: 39°   Visibility: 10mi
Dew Point: 27°   Wind: 6mph
Humidity: 62%   Direction: 180°S
Pressure: 29.98"   Gusts: NA
Location:  35.977°N, 95.6229°W
Report Text: KRVS 260853Z AUTO 18005KT 10SM CLR 04/M03 A2998 RMK AO2 SLP159 T00391028 56024
Loading
Personal Weather Stations






























Interactive Weather Map New forecast layout! Learn more

10-Day Weather Forecast

Advertisements
Track Severe Weather on mobile